createdAt,value
2023-02-16T00:01:00.001Z,33.50
2023-02-16T00:06:01.765Z,37.80
2023-02-16T00:11:21.910Z,39.38
2023-02-16T00:16:25.117Z,36.53
2023-02-16T00:21:27.050Z,39.25
2023-02-16T00:26:31.339Z,39.20
2023-02-16T00:31:33.219Z,36.83
2023-02-16T00:36:35.081Z,40.53
2023-02-16T00:41:52.028Z,39.35
2023-02-16T00:46:53.796Z,36.45
2023-02-16T00:51:55.813Z,35.55
2023-02-16T00:56:57.830Z,36.05
2023-02-16T01:01:59.643Z,34.75
2023-02-16T01:07:19.869Z,32.35
2023-02-16T01:12:22.119Z,33.50
2023-02-16T01:17:24.713Z,37.50
2023-02-16T01:22:33.344Z,30.95
2023-02-16T01:27:38.144Z,39.30
2023-02-16T01:32:40.407Z,30.52
2023-02-16T01:37:42.806Z,36.80
2023-02-16T01:42:52.105Z,33.83
2023-02-16T01:48:01.728Z,35.63
2023-02-16T01:53:23.747Z,34.25
2023-02-16T01:58:46.144Z,38.78
2023-02-16T02:04:06.377Z,38.53
2023-02-16T02:09:20.225Z,37.33
2023-02-16T02:14:32.223Z,43.50
2023-02-16T02:20:09.627Z,34.70
2023-02-16T02:30:40.793Z,29.98
2023-02-16T02:35:58.456Z,32.28
2023-02-16T02:41:22.275Z,32.95
2023-02-16T02:46:30.372Z,36.13
2023-02-16T02:51:33.895Z,34.33
2023-02-16T02:57:03.910Z,34.25
2023-02-16T03:02:06.355Z,45.50
2023-02-16T03:07:09.968Z,36.90
2023-02-16T03:12:32.064Z,29.60
2023-02-16T03:17:55.779Z,34.40
2023-02-16T03:23:16.806Z,37.47
2023-02-16T03:28:39.493Z,30.00
2023-02-16T03:33:41.619Z,31.80
2023-02-16T03:38:43.334Z,36.03
2023-02-16T03:43:45.001Z,32.33
2023-02-16T03:48:46.693Z,37.33
2023-02-16T03:53:48.353Z,40.45
2023-02-16T03:58:50.006Z,30.65
2023-02-16T04:03:51.788Z,35.15
2023-02-16T04:08:54.548Z,31.33
2023-02-16T04:13:56.303Z,29.60
2023-02-16T04:18:58.014Z,29.83
2023-02-16T04:24:00.040Z,36.75
2023-02-16T04:29:01.707Z,26.50
2023-02-16T04:34:03.413Z,33.25
2023-02-16T04:39:05.397Z,33.35
2023-02-16T04:44:07.166Z,34.67
2023-02-16T04:49:08.828Z,41.25
2023-02-16T04:54:10.472Z,37.78
2023-02-16T04:59:12.606Z,25.52
2023-02-16T05:04:14.536Z,35.38
2023-02-16T05:09:16.289Z,38.08
2023-02-16T05:14:42.781Z,41.00
2023-02-16T05:19:47.240Z,32.78
2023-02-16T05:24:49.413Z,32.25
2023-02-16T05:29:51.741Z,35.55
2023-02-16T05:34:53.566Z,34.45
2023-02-16T05:39:55.251Z,29.45
2023-02-16T05:44:56.910Z,31.92
2023-02-16T05:49:58.596Z,40.47
2023-02-16T05:55:00.311Z,40.03
2023-02-16T06:00:03.438Z,38.42
2023-02-16T06:05:06.646Z,35.65
2023-02-16T06:10:09.081Z,38.50
2023-02-16T06:15:11.860Z,43.95
2023-02-16T06:20:13.573Z,30.77
2023-02-16T06:25:15.383Z,36.78
2023-02-16T06:30:17.378Z,42.30
2023-02-16T06:35:19.057Z,39.20
2023-02-16T06:40:21.463Z,38.88
2023-02-16T06:45:23.211Z,38.40
2023-02-16T06:50:24.891Z,33.45
2023-02-16T06:55:26.617Z,36.97
2023-02-16T07:00:29.723Z,37.85
2023-02-16T07:05:31.439Z,33.22
2023-02-16T07:10:47.711Z,39.42
2023-02-16T07:15:51.215Z,35.35
2023-02-16T07:20:53.119Z,38.63
2023-02-16T07:25:54.854Z,31.90
2023-02-16T07:30:56.632Z,33.35
2023-02-16T07:35:58.587Z,30.67
2023-02-16T07:41:00.379Z,42.17
2023-02-16T07:46:02.287Z,38.35
2023-02-16T07:51:04.989Z,42.10
2023-02-16T07:56:06.983Z,35.85
2023-02-16T08:01:11.062Z,37.30
2023-02-16T08:06:13.689Z,35.22
2023-02-16T08:11:17.150Z,32.53
2023-02-16T08:16:24.682Z,38.88
2023-02-16T08:21:32.595Z,31.65
2023-02-16T08:26:37.819Z,37.03
2023-02-16T08:31:39.955Z,29.65
2023-02-16T08:36:44.632Z,27.70
2023-02-16T08:41:48.279Z,31.65
2023-02-16T08:46:51.030Z,32.78
2023-02-16T08:51:55.670Z,24.95
2023-02-16T08:56:59.827Z,29.67
2023-02-16T09:02:01.544Z,23.90
2023-02-16T09:07:03.464Z,31.00
2023-02-16T09:12:05.580Z,35.33
2023-02-16T09:17:07.360Z,31.77
2023-02-16T09:22:09.034Z,25.40
2023-02-16T09:27:11.611Z,33.65
2023-02-16T09:32:14.644Z,32.03
2023-02-16T09:37:16.247Z,38.65
2023-02-16T09:42:24.428Z,33.60
2023-02-16T09:47:32.105Z,42.03
2023-02-16T09:52:42.826Z,32.15
2023-02-16T09:57:55.731Z,40.10
2023-02-16T10:03:32.237Z,30.70
2023-02-16T10:08:45.468Z,32.58
2023-02-16T10:13:54.065Z,39.42
2023-02-16T10:18:58.856Z,36.92
2023-02-16T10:24:05.192Z,29.48
2023-02-16T10:29:12.890Z,36.67
2023-02-16T10:34:23.445Z,30.20
2023-02-16T10:39:35.133Z,30.58
2023-02-16T10:44:43.856Z,38.13
2023-02-16T10:49:47.894Z,27.52
2023-02-16T10:54:49.536Z,24.23
2023-02-16T10:59:51.395Z,22.15
2023-02-16T11:04:54.784Z,24.60
2023-02-16T11:10:00.897Z,25.20
2023-02-16T11:15:18.764Z,30.73
2023-02-16T11:20:31.812Z,29.25
2023-02-16T11:25:33.429Z,21.83
2023-02-16T11:30:41.386Z,15.55
2023-02-16T11:35:45.797Z,14.93
2023-02-16T11:40:52.755Z,22.00
2023-02-16T11:46:20.178Z,18.45
2023-02-16T11:51:34.901Z,14.20
2023-02-16T11:56:36.593Z,17.02
2023-02-16T12:02:08.607Z,15.73
2023-02-16T12:07:28.812Z,21.45
2023-02-16T12:12:48.904Z,15.75
2023-02-16T12:18:02.710Z,16.70
2023-02-16T12:23:18.471Z,16.85
2023-02-16T12:28:41.678Z,16.10
2023-02-16T12:34:01.569Z,18.52
2023-02-16T12:39:12.279Z,17.30
2023-02-16T12:44:25.026Z,16.15
2023-02-16T12:49:49.379Z,16.40
2023-02-16T12:55:11.025Z,15.77
2023-02-16T13:00:33.194Z,15.48
2023-02-16T13:05:38.004Z,16.83
2023-02-16T13:11:05.615Z,17.05
2023-02-16T13:16:24.167Z,17.33
2023-02-16T13:21:50.989Z,16.20
2023-02-16T13:27:18.174Z,16.65
2023-02-16T13:32:48.697Z,16.88
2023-02-16T13:37:59.928Z,17.02
2023-02-16T13:43:30.831Z,17.15
2023-02-16T13:48:47.432Z,18.10
2023-02-16T13:53:52.296Z,14.80
2023-02-16T13:58:54.298Z,15.90
2023-02-16T14:03:55.904Z,15.35
2023-02-16T14:09:13.174Z,19.60
2023-02-16T14:14:53.017Z,13.00
2023-02-16T14:19:54.630Z,16.42
2023-02-16T14:25:00.000Z,15.65
2023-02-16T14:30:03.382Z,14.50
2023-02-16T14:35:15.699Z,13.98
2023-02-16T14:40:38.704Z,11.95
2023-02-16T14:45:49.340Z,12.35
2023-02-16T14:51:28.940Z,16.73
2023-02-16T14:56:59.570Z,12.90
2023-02-16T15:02:21.280Z,12.80
2023-02-16T15:07:26.120Z,30.77
2023-02-16T15:12:32.651Z,37.28
2023-02-16T15:17:45.809Z,32.38
2023-02-16T15:22:56.134Z,42.67
2023-02-16T15:28:16.908Z,39.33
2023-02-16T15:33:24.623Z,46.83
2023-02-16T15:38:28.122Z,43.42
2023-02-16T15:43:35.845Z,38.22
2023-02-16T15:48:38.252Z,55.80
2023-02-16T15:53:52.260Z,46.05
2023-02-16T15:58:55.890Z,46.75
2023-02-16T16:03:57.571Z,50.65
2023-02-16T16:08:59.810Z,48.38
2023-02-16T16:14:06.144Z,42.70
2023-02-16T16:19:18.442Z,48.13
2023-02-16T16:24:38.757Z,50.08
2023-02-16T16:29:44.100Z,54.58
2023-02-16T16:34:46.168Z,52.85
2023-02-16T16:40:22.088Z,50.03
2023-02-16T16:45:36.652Z,52.90
2023-02-16T16:50:39.866Z,59.40
2023-02-16T16:55:41.575Z,60.13
2023-02-16T17:00:45.728Z,52.38
2023-02-16T17:05:47.455Z,56.85
2023-02-16T17:10:49.166Z,67.00
2023-02-16T17:16:02.353Z,60.17
2023-02-16T17:21:05.302Z,59.65
2023-02-16T17:26:07.523Z,61.42
2023-02-16T17:31:10.983Z,81.63
2023-02-16T17:36:15.526Z,75.65
2023-02-16T17:41:29.391Z,84.07
2023-02-16T17:46:32.216Z,66.85
2023-02-16T17:51:36.295Z,57.25
2023-02-16T17:56:41.827Z,72.15
2023-02-16T18:01:45.029Z,74.97
2023-02-16T18:06:48.573Z,82.88
2023-02-16T18:11:51.237Z,83.10
2023-02-16T18:16:53.578Z,77.78
2023-02-16T18:21:55.845Z,74.03
2023-02-16T18:26:57.570Z,71.78
2023-02-16T18:32:03.212Z,72.43
2023-02-16T18:37:04.893Z,72.65
2023-02-16T18:42:06.972Z,83.97
2023-02-16T18:47:11.956Z,78.60
2023-02-16T18:52:13.547Z,75.05
2023-02-16T18:57:15.356Z,75.30
2023-02-16T19:02:17.005Z,76.03
2023-02-16T19:07:19.380Z,70.72
2023-02-16T19:12:21.100Z,80.28
2023-02-16T19:17:22.688Z,79.03
2023-02-16T19:22:25.120Z,81.70
2023-02-16T19:27:26.914Z,74.43
2023-02-16T19:32:29.632Z,78.07
2023-02-16T19:37:32.061Z,81.30
2023-02-16T19:42:33.758Z,81.15
2023-02-16T19:47:35.938Z,82.07
2023-02-16T19:52:38.432Z,81.70
2023-02-16T19:57:42.406Z,78.10
2023-02-16T20:02:44.368Z,75.85
2023-02-16T20:07:46.964Z,32.15
2023-02-16T20:12:49.142Z,21.90
2023-02-16T20:18:01.069Z,19.40
2023-02-16T20:23:02.858Z,18.73
2023-02-16T20:28:04.745Z,18.33
2023-02-16T20:33:06.397Z,19.23
2023-02-16T20:38:08.159Z,20.00
2023-02-16T20:43:10.362Z,17.50
2023-02-16T20:48:12.498Z,18.38
2023-02-16T20:53:14.396Z,18.58
2023-02-16T20:58:17.228Z,17.67
2023-02-16T21:03:19.052Z,17.08
2023-02-16T21:08:21.051Z,15.98
2023-02-16T21:13:22.989Z,16.85
2023-02-16T21:18:27.169Z,17.00
2023-02-16T21:23:30.083Z,15.43
2023-02-16T21:28:32.116Z,15.52
2023-02-16T21:33:34.091Z,15.00
2023-02-16T21:38:36.752Z,13.75
2023-02-16T21:43:38.750Z,14.82
2023-02-16T21:48:52.941Z,14.00
2023-02-16T21:53:55.392Z,12.80
2023-02-16T21:58:57.702Z,12.23
2023-02-16T22:04:00.559Z,12.93
2023-02-16T22:09:06.726Z,13.05
2023-02-16T22:14:08.445Z,11.70
2023-02-16T22:19:15.301Z,11.93
2023-02-16T22:24:18.406Z,11.40
2023-02-16T22:29:20.098Z,12.25
2023-02-16T22:34:22.551Z,11.38
2023-02-16T22:39:24.279Z,11.30
2023-02-16T22:44:25.989Z,11.35
2023-02-16T22:49:27.673Z,11.13
2023-02-16T22:54:29.271Z,11.65
2023-02-16T22:59:30.954Z,11.30
2023-02-16T23:04:32.686Z,11.30
2023-02-16T23:09:34.605Z,10.60
2023-02-16T23:14:37.671Z,11.35
2023-02-16T23:19:40.206Z,10.43
2023-02-16T23:24:41.882Z,10.68
2023-02-16T23:29:43.545Z,10.52
2023-02-16T23:34:45.260Z,9.55
2023-02-16T23:39:47.011Z,12.23
2023-02-16T23:44:48.754Z,11.00
2023-02-16T23:49:50.556Z,11.45
2023-02-16T23:54:52.203Z,10.88
2023-02-16T23:59:53.824Z,9.57
